Time;durP1;ratioP1;P1;durP2;ratioP2;P2;SDS_P1;SDS_P2;PMS_P1;PMS_P2;Temp;Humidity;BMP_temperature;BMP_pressure;BME280_temperature;BME280_humidity;BME280_pressure;Samples;Min_cycle;Max_cycle;Signal;HPM_P1;HPM_P2
2022/07/27 00:01:12;;;;;;;2.75;0.80;;;;;;;24.58;30.20;101488.00;5071946;28;20040;-72
2022/07/27 00:03:45;;;;;;;2.70;0.88;;;;;;;24.60;30.11;101490.63;5067459;28;20500;-72
2022/07/27 00:06:14;;;;;;;2.53;0.85;;;;;;;24.55;30.75;101488.34;5086335;28;21222;-72
2022/07/27 00:08:42;;;;;;;1.70;0.90;;;;;;;24.57;30.50;101485.41;5086377;28;20079;-72
2022/07/27 00:11:10;;;;;;;3.53;1.15;;;;;;;24.54;30.16;101489.41;5068332;28;20519;-72
2022/07/27 00:13:39;;;;;;;3.13;1.00;;;;;;;24.54;30.30;101489.41;5088856;28;20064;-72
2022/07/27 00:16:08;;;;;;;2.75;1.10;;;;;;;24.54;30.52;101494.13;5090182;28;20036;-72
2022/07/27 00:18:36;;;;;;;2.08;1.08;;;;;;;24.53;30.72;101486.81;5089587;28;20040;-72
2022/07/27 00:21:05;;;;;;;2.60;0.80;;;;;;;24.53;30.70;101482.13;5089836;28;20043;-72
2022/07/27 00:23:34;;;;;;;2.15;0.63;;;;;;;24.51;30.79;101492.53;5089107;28;20223;-72
2022/07/27 00:26:02;;;;;;;2.47;0.90;;;;;;;24.50;30.26;101488.03;5090439;28;20059;-72
2022/07/27 00:28:30;;;;;;;2.83;0.88;;;;;;;24.49;30.42;101491.84;5088363;28;20098;-72
2022/07/27 00:30:58;;;;;;;2.28;0.93;;;;;;;24.49;30.33;101499.31;5081364;28;20032;-72
2022/07/27 00:33:26;;;;;;;2.28;0.70;;;;;;;24.47;30.35;101493.94;5089023;28;20484;-72
2022/07/27 00:35:54;;;;;;;1.35;0.68;;;;;;;24.47;30.35;101493.06;5089375;28;20521;-72
2022/07/27 00:38:24;;;;;;;2.53;1.00;;;;;;;24.48;30.44;101492.03;5089199;28;20554;-72
2022/07/27 00:40:52;;;;;;;1.50;0.75;;;;;;;24.45;30.74;101493.25;5070790;28;20036;-72
2022/07/27 00:43:20;;;;;;;1.70;0.75;;;;;;;24.45;31.01;101490.50;5087084;28;20070;-72
2022/07/27 00:45:48;;;;;;;0.85;0.70;;;;;;;24.44;30.60;101488.75;5088976;28;20052;-72
2022/07/27 00:48:16;;;;;;;2.35;0.90;;;;;;;24.44;30.51;101490.66;5089577;28;20102;-72
2022/07/27 00:50:46;;;;;;;1.63;0.80;;;;;;;24.44;30.84;101494.31;5057579;28;20448;-72
2022/07/27 00:53:15;;;;;;;2.55;0.75;;;;;;;24.42;31.09;101499.16;5078590;28;20564;-72
2022/07/27 00:55:45;;;;;;;1.90;0.75;;;;;;;24.43;30.51;101494.47;5086212;28;20051;-72
2022/07/27 00:58:14;;;;;;;2.10;0.85;;;;;;;24.41;31.08;101494.66;5087541;28;20054;-72
2022/07/27 01:00:42;;;;;;;1.15;0.70;;;;;;;24.39;30.72;101493.94;5080880;28;20526;-72
2022/07/27 01:03:10;;;;;;;1.98;0.75;;;;;;;24.38;31.22;101497.75;5089134;28;20036;-72
2022/07/27 01:05:39;;;;;;;2.15;0.98;;;;;;;24.37;30.95;101496.06;5088249;28;20040;-72
2022/07/27 01:08:12;;;;;;;2.85;1.00;;;;;;;24.35;31.20;101500.91;5089874;28;20056;-72
2022/07/27 01:10:42;;;;;;;1.80;0.80;;;;;;;24.34;30.93;101496.41;5075921;28;20060;-72
2022/07/27 01:13:12;;;;;;;1.40;0.73;;;;;;;24.36;31.11;101499.88;5085510;28;20507;-72
2022/07/27 01:15:42;;;;;;;2.28;0.75;;;;;;;24.35;31.03;101502.81;5088402;28;20043;-72
2022/07/27 01:18:12;;;;;;;2.85;0.93;;;;;;;24.33;31.03;101491.03;5089444;28;20079;-72
2022/07/27 01:20:41;;;;;;;3.53;0.80;;;;;;;24.31;30.97;101491.19;5088474;28;20090;-72
2022/07/27 01:23:11;;;;;;;2.70;0.90;;;;;;;24.33;31.17;101496.56;5087747;28;20094;-72
2022/07/27 01:25:41;;;;;;;3.85;0.90;;;;;;;24.32;31.03;101494.84;5088193;28;20131;-72
2022/07/27 01:28:09;;;;;;;3.63;1.20;;;;;;;24.27;31.52;101487.94;5070551;28;20048;-72
2022/07/27 01:30:38;;;;;;;1.88;0.80;;;;;;;24.27;31.39;101496.25;5074101;28;20052;-72
2022/07/27 01:33:07;;;;;;;1.92;0.98;;;;;;;24.28;30.99;101494.34;5077302;28;20040;-72
2022/07/27 01:35:36;;;;;;;1.67;0.77;;;;;;;24.27;31.50;101489.84;5087517;28;20143;-72
2022/07/27 01:38:05;;;;;;;4.03;1.00;;;;;;;24.24;31.10;101487.41;5087776;28;20063;-72
2022/07/27 01:40:36;;;;;;;2.15;0.70;;;;;;;24.24;31.34;101493.81;5087310;28;20082;-72
2022/07/27 01:43:05;;;;;;;1.95;0.90;;;;;;;24.22;31.30;101490.34;5088669;28;20039;-72
2022/07/27 01:45:33;;;;;;;1.52;0.70;;;;;;;24.20;31.71;101489.66;5087283;28;20459;-72
2022/07/27 01:48:01;;;;;;;2.83;1.00;;;;;;;24.20;31.52;101486.91;5064021;28;20049;-72
2022/07/27 01:50:29;;;;;;;2.17;0.75;;;;;;;24.18;31.17;101482.53;5080439;28;20036;-72
2022/07/27 01:52:57;;;;;;;1.50;0.63;;;;;;;24.16;31.17;101484.59;5088239;28;20046;-72
2022/07/27 01:55:25;;;;;;;3.03;0.88;;;;;;;24.15;31.27;101493.97;5087493;28;20071;-72
2022/07/27 01:58:06;;;;;;;1.83;0.65;;;;;;;24.14;31.69;101489.44;5087561;28;20047;-72
2022/07/27 02:00:35;;;;;;;2.30;0.80;;;;;;;24.09;31.28;101484.44;5068893;28;20040;-72
2022/07/27 02:03:03;;;;;;;2.78;0.90;;;;;;;24.08;31.59;101496.56;5087939;28;20040;-72
2022/07/27 02:05:31;;;;;;;1.95;0.73;;;;;;;24.06;31.90;101495.00;5071895;28;20064;-72
2022/07/27 02:08:00;;;;;;;1.55;0.80;;;;;;;24.03;31.36;101496.25;5088546;28;20036;-72
2022/07/27 02:10:28;;;;;;;2.33;1.00;;;;;;;24.02;31.80;101496.41;5087420;28;20048;-72
2022/07/27 02:12:55;;;;;;;1.23;0.75;;;;;;;23.99;31.79;101491.19;5088176;28;20060;-72
2022/07/27 02:15:26;;;;;;;2.22;0.70;;;;;;;23.99;31.62;101496.75;5087098;28;20048;-72
2022/07/27 02:17:57;;;;;;;1.77;0.65;;;;;;;23.95;31.97;101498.16;5088150;28;20528;-72
2022/07/27 02:20:29;;;;;;;2.10;0.90;;;;;;;23.90;31.46;101493.97;5086908;28;20048;-71
2022/07/27 02:22:57;;;;;;;1.98;0.80;;;;;;;23.87;31.83;101499.91;5072010;28;20524;-72
2022/07/27 02:25:25;;;;;;;2.50;0.75;;;;;;;23.85;31.77;101492.78;5086833;28;20048;-72
2022/07/27 02:27:53;;;;;;;3.15;0.90;;;;;;;23.82;32.09;101493.13;5086904;28;20044;-72
2022/07/27 02:30:21;;;;;;;2.20;0.80;;;;;;;23.79;31.64;101494.34;5080432;28;20075;-72
2022/07/27 02:32:50;;;;;;;1.70;0.60;;;;;;;23.79;32.38;101485.16;5080657;28;20110;-72
2022/07/27 02:35:19;;;;;;;1.98;0.80;;;;;;;23.74;31.78;101485.66;5086990;28;20357;-72
2022/07/27 02:37:48;;;;;;;1.92;0.90;;;;;;;23.73;31.83;101488.59;5083329;28;20050;-72
2022/07/27 02:40:17;;;;;;;1.60;0.70;;;;;;;23.69;32.07;101479.78;5086323;28;20380;-72
2022/07/27 02:42:46;;;;;;;2.17;0.90;;;;;;;23.67;32.38;101490.16;5087934;28;20067;-72
2022/07/27 02:45:14;;;;;;;3.28;1.10;;;;;;;23.65;31.93;101489.47;5086455;28;20052;-72
2022/07/27 02:47:42;;;;;;;2.03;0.93;;;;;;;23.61;32.49;101484.44;5068992;28;20079;-72
2022/07/27 02:50:12;;;;;;;1.65;0.90;;;;;;;23.61;32.17;101488.09;5086656;28;20098;-72
2022/07/27 02:52:41;;;;;;;2.17;1.00;;;;;;;23.57;32.43;101489.47;5086935;28;20497;-72
2022/07/27 02:55:10;;;;;;;1.17;0.73;;;;;;;23.55;32.48;101488.78;5086922;28;20047;-72
2022/07/27 02:57:39;;;;;;;1.73;0.82;;;;;;;23.51;32.70;101492.91;5086485;28;20480;-72
2022/07/27 03:00:11;;;;;;;2.75;0.90;;;;;;;23.50;32.67;101491.19;5077210;28;20044;-71
2022/07/27 03:02:40;;;;;;;2.00;0.90;;;;;;;23.46;32.50;101487.88;5074340;28;20040;-72
2022/07/27 03:05:11;;;;;;;2.33;0.80;;;;;;;23.45;32.48;101488.03;5067682;28;20066;-72
2022/07/27 03:07:39;;;;;;;2.05;0.90;;;;;;;23.41;32.80;101489.41;5087886;28;20047;-72
2022/07/27 03:10:08;;;;;;;3.00;0.90;;;;;;;23.39;32.81;101486.78;5067893;28;20131;-72
2022/07/27 03:12:36;;;;;;;2.05;1.00;;;;;;;23.36;32.80;101500.16;5087044;28;20036;-72
2022/07/27 03:15:05;;;;;;;2.33;1.13;;;;;;;23.34;32.61;101493.91;5085039;28;20067;-72
2022/07/27 03:17:33;;;;;;;2.55;0.98;;;;;;;23.30;32.47;101496.16;5087687;28;20047;-72
2022/07/27 03:20:01;;;;;;;1.77;0.70;;;;;;;23.27;32.57;101493.72;5085768;28;20056;-72
2022/07/27 03:22:32;;;;;;;2.88;0.80;;;;;;;23.27;32.76;101495.63;5086969;28;20500;-73
2022/07/27 03:25:00;;;;;;;2.35;1.00;;;;;;;23.22;32.66;101490.59;5086298;28;20508;-72
2022/07/27 03:27:29;;;;;;;1.58;1.08;;;;;;;23.20;32.71;101489.88;5068986;28;20052;-72
2022/07/27 03:29:57;;;;;;;3.08;0.88;;;;;;;23.19;33.33;101495.59;5081670;28;21390;-72
2022/07/27 03:32:25;;;;;;;1.95;1.00;;;;;;;23.17;33.33;101497.66;5060104;28;20091;-72
2022/07/27 03:34:53;;;;;;;2.58;0.93;;;;;;;23.14;33.19;101488.63;5086769;28;20102;-71
2022/07/27 03:37:21;;;;;;;1.60;0.80;;;;;;;23.13;33.24;101491.59;5086392;28;20036;-72
2022/07/27 03:39:50;;;;;;;1.90;1.00;;;;;;;23.12;33.12;101499.03;5078890;28;20102;-72
2022/07/27 03:42:18;;;;;;;2.20;1.10;;;;;;;23.08;32.90;101508.72;5070967;28;20425;-72
2022/07/27 03:44:46;;;;;;;2.65;0.98;;;;;;;23.06;33.05;101502.47;5085762;28;20094;-72
2022/07/27 03:47:14;;;;;;;2.38;0.95;;;;;;;23.04;33.56;101504.56;5080412;28;20075;-73
2022/07/27 03:49:42;;;;;;;3.20;0.90;;;;;;;23.02;32.91;101500.22;5076078;28;20093;-73
2022/07/27 03:52:10;;;;;;;2.97;0.90;;;;;;;23.00;33.13;101502.28;5091128;28;20131;-73
2022/07/27 03:54:44;;;;;;;2.53;0.93;;;;;;;22.96;33.36;101501.75;5078830;28;20048;-73
2022/07/27 03:57:14;;;;;;;2.35;1.10;;;;;;;22.97;33.47;101505.41;5091001;28;20043;-74
2022/07/27 03:59:42;;;;;;;2.05;0.90;;;;;;;22.92;33.40;101505.00;5077653;28;20367;-74
2022/07/27 04:02:10;;;;;;;2.30;0.90;;;;;;;22.90;33.13;101505.19;5085711;28;20040;-74
2022/07/27 04:04:38;;;;;;;2.42;1.02;;;;;;;22.87;33.81;101502.75;5083628;28;20051;-73
2022/07/27 04:07:06;;;;;;;2.65;1.13;;;;;;;22.86;33.65;101505.69;5084242;28;20051;-74
2022/07/27 04:09:36;;;;;;;3.13;1.30;;;;;;;22.83;33.40;101515.19;5078810;28;20119;-73
2022/07/27 04:12:06;;;;;;;1.40;0.90;;;;;;;22.82;34.03;101516.22;5090743;28;20087;-72
2022/07/27 04:14:35;;;;;;;3.15;1.00;;;;;;;22.83;33.93;101514.31;5079432;28;20413;-73
2022/07/27 04:17:04;;;;;;;3.33;0.93;;;;;;;22.80;33.90;101514.66;5086355;28;20127;-73
2022/07/27 04:19:32;;;;;;;2.05;0.98;;;;;;;22.76;33.58;101520.53;5086563;28;20044;-72
2022/07/27 04:22:00;;;;;;;2.78;1.00;;;;;;;22.76;33.83;101525.19;5087798;28;20040;-74
2022/07/27 04:24:28;;;;;;;2.85;1.10;;;;;;;22.75;34.29;101523.44;5086895;28;20051;-73
2022/07/27 04:26:56;;;;;;;1.83;0.93;;;;;;;22.72;34.15;101519.09;5088736;28;20048;-74
2022/07/27 04:29:24;;;;;;;2.28;1.17;;;;;;;22.73;33.78;101525.50;5088658;28;20044;-72
2022/07/27 04:31:54;;;;;;;2.08;0.95;;;;;;;22.73;33.93;101526.34;5086040;28;20041;-72
2022/07/27 04:34:22;;;;;;;3.03;1.10;;;;;;;22.70;34.26;101521.16;5081343;28;20364;-73
2022/07/27 04:36:50;;;;;;;3.38;1.08;;;;;;;22.70;33.97;101523.06;5079101;28;20142;-72
2022/07/27 04:39:18;;;;;;;2.45;1.20;;;;;;;22.70;34.52;101525.81;5088543;28;20538;-72
2022/07/27 04:41:46;;;;;;;1.77;1.00;;;;;;;22.68;34.21;101531.53;5078619;28;20059;-73
2022/07/27 04:44:14;;;;;;;2.45;1.00;;;;;;;22.68;34.53;101528.75;5089393;28;20048;-74
2022/07/27 04:46:43;;;;;;;2.50;0.90;;;;;;;22.69;34.73;101527.72;5090472;28;20054;-73
2022/07/27 04:49:12;;;;;;;2.78;1.10;;;;;;;22.72;34.33;101534.84;5057600;28;20075;-73
2022/07/27 04:51:43;;;;;;;1.52;1.00;;;;;;;22.71;34.20;101533.09;5089296;28;20060;-73
2022/07/27 04:54:12;;;;;;;2.40;1.30;;;;;;;22.69;34.38;101526.84;5053361;28;20055;-74
2022/07/27 04:56:40;;;;;;;2.88;1.17;;;;;;;22.70;34.79;101534.13;5080786;28;20087;-73
2022/07/27 04:59:08;;;;;;;2.63;1.20;;;;;;;22.70;34.16;101534.13;5087389;28;20048;-75
2022/07/27 05:01:37;;;;;;;2.17;1.02;;;;;;;22.70;34.77;101537.78;5084500;28;20052;-74
2022/07/27 05:04:05;;;;;;;2.70;1.15;;;;;;;22.71;34.40;101535.88;5088968;28;20670;-73
2022/07/27 05:06:34;;;;;;;1.95;1.00;;;;;;;22.74;34.86;101539.19;5071711;28;20044;-73
2022/07/27 05:09:03;;;;;;;2.63;1.25;;;;;;;22.77;34.84;101544.41;5088545;28;20063;-72
2022/07/27 05:11:31;;;;;;;2.20;1.13;;;;;;;22.81;34.94;101541.31;5076644;28;20044;-73
2022/07/27 05:13:59;;;;;;;0.95;0.70;;;;;;;22.89;34.58;101545.00;5053724;28;20040;-72
2022/07/27 05:16:27;;;;;;;2.10;1.10;;;;;;;23.00;34.63;101541.06;5082214;28;20055;-74
2022/07/27 05:18:56;;;;;;;3.38;1.20;;;;;;;23.15;35.07;101544.91;5074523;28;20520;-72
2022/07/27 05:21:24;;;;;;;3.13;1.13;;;;;;;23.31;34.43;101544.09;5089566;28;20082;-73
2022/07/27 05:23:54;;;;;;;3.00;1.00;;;;;;;23.51;34.81;101549.22;5088389;28;20036;-72
2022/07/27 05:26:22;;;;;;;3.03;1.10;;;;;;;23.70;34.82;101552.75;5089061;28;20451;-72
2022/07/27 05:28:50;;;;;;;1.88;0.88;;;;;;;23.89;34.60;101552.38;5087082;28;20068;-72
2022/07/27 05:31:18;;;;;;;3.42;1.08;;;;;;;24.10;34.02;101554.66;5088908;28;20044;-72
2022/07/27 05:33:47;;;;;;;2.78;1.00;;;;;;;24.29;34.15;101551.59;5087755;28;20420;-73
2022/07/27 05:36:19;;;;;;;3.65;1.33;;;;;;;24.49;33.44;101552.06;5089326;28;20138;-71
2022/07/27 05:38:47;;;;;;;3.10;1.13;;;;;;;24.73;33.19;101565.03;5085987;28;20124;-72
2022/07/27 05:41:23;;;;;;;2.08;1.00;;;;;;;24.95;33.00;101558.75;5070546;28;20048;-72
2022/07/27 05:43:53;;;;;;;2.53;1.10;;;;;;;25.10;32.40;101558.88;5088055;28;20048;-71
2022/07/27 05:46:21;;;;;;;3.90;1.10;;;;;;;25.26;32.33;101559.66;5074665;28;20071;-72
2022/07/27 05:48:50;;;;;;;2.85;1.20;;;;;;;25.42;32.64;101575.38;5088368;28;20105;-72
2022/07/27 05:51:18;;;;;;;2.42;1.00;;;;;;;25.58;32.06;101575.31;5088328;28;20420;-72
2022/07/27 05:53:46;;;;;;;3.75;1.05;;;;;;;25.71;31.88;101577.50;5088063;28;20090;-72
2022/07/27 05:56:15;;;;;;;2.60;1.10;;;;;;;25.83;31.87;101581.59;5089261;28;20382;-72
2022/07/27 05:58:43;;;;;;;2.50;0.98;;;;;;;25.95;31.25;101577.31;5086502;28;20378;-73
2022/07/27 06:01:11;;;;;;;2.13;1.40;;;;;;;26.05;31.04;101583.53;5088312;28;20040;-73
2022/07/27 06:03:39;;;;;;;2.50;1.00;;;;;;;26.14;30.75;101581.53;5087732;28;20035;-72
2022/07/27 06:08:53;;;;;;;2.05;1.10;;;;;;;26.31;30.98;101582.28;5087808;28;20052;-73
2022/07/27 06:11:23;;;;;;;3.65;1.15;;;;;;;26.41;30.31;101585.69;5088233;28;20560;-75
2022/07/27 06:13:51;;;;;;;3.05;1.00;;;;;;;26.46;30.24;101583.19;5087172;28;20055;-66
2022/07/27 06:16:19;;;;;;;3.05;0.95;;;;;;;26.53;30.32;101590.59;5088142;28;20074;-67
2022/07/27 06:18:48;;;;;;;2.25;0.90;;;;;;;26.58;29.94;101586.41;5086845;28;20544;-62
2022/07/27 06:21:16;;;;;;;3.08;1.30;;;;;;;26.59;29.64;101577.00;5088067;28;20039;-63
2022/07/27 06:23:47;;;;;;;2.58;1.02;;;;;;;26.57;29.59;101590.25;5086011;28;20040;-62
2022/07/27 06:26:15;;;;;;;3.50;1.10;;;;;;;26.53;29.40;101590.59;5088120;28;20516;-64
2022/07/27 06:28:45;;;;;;;3.33;1.00;;;;;;;26.49;29.27;101591.19;5085434;28;20105;-70
2022/07/27 06:31:13;;;;;;;3.00;1.00;;;;;;;26.40;29.63;101583.97;5077215;28;20536;-71
2022/07/27 06:33:42;;;;;;;1.77;0.80;;;;;;;26.33;29.52;101588.56;5075371;28;20040;-70
2022/07/27 06:36:12;;;;;;;1.63;0.68;;;;;;;26.26;29.79;101582.00;5088080;28;20048;-71
2022/07/27 06:38:41;;;;;;;2.22;0.90;;;;;;;26.21;29.81;101581.66;5084713;28;20119;-72
2022/07/27 06:41:09;;;;;;;2.60;0.90;;;;;;;26.17;29.60;101580.31;5086554;28;20056;-72
2022/07/27 06:43:37;;;;;;;2.80;0.70;;;;;;;26.13;30.07;101589.03;5079646;28;20312;-71
2022/07/27 06:46:11;;;;;;;2.38;0.80;;;;;;;26.14;29.80;101585.19;5087731;28;20036;-72
2022/07/27 06:48:39;;;;;;;2.33;0.85;;;;;;;26.12;30.05;101583.63;5086807;28;20040;-72
2022/07/27 06:51:08;;;;;;;2.67;0.80;;;;;;;26.14;30.01;101579.63;5087581;28;20282;-71
2022/07/27 06:53:36;;;;;;;2.38;0.75;;;;;;;26.17;29.58;101583.09;5087508;28;20044;-71
2022/07/27 06:56:07;;;;;;;1.77;0.75;;;;;;;26.18;29.38;101576.47;5073578;28;20123;-71
2022/07/27 06:58:36;;;;;;;2.33;0.80;;;;;;;26.20;29.51;101586.34;5082963;28;20515;-70
2022/07/27 07:01:06;;;;;;;2.05;0.70;;;;;;;26.22;29.80;101578.69;5074167;28;20572;-71
2022/07/27 07:03:34;;;;;;;2.78;0.70;;;;;;;26.25;29.44;101583.88;5086922;28;20071;-71
2022/07/27 07:06:02;;;;;;;1.90;0.90;;;;;;;26.30;29.46;101586.13;5087025;28;20105;-71
2022/07/27 07:08:30;;;;;;;2.55;0.75;;;;;;;26.34;29.34;101587.50;5086996;28;20048;-71
2022/07/27 07:10:58;;;;;;;1.65;0.60;;;;;;;26.38;29.62;101583.28;5087109;28;20071;-72
2022/07/27 07:13:26;;;;;;;1.50;0.60;;;;;;;26.44;29.50;101597.31;5086759;28;20048;-72
2022/07/27 07:15:55;;;;;;;2.33;0.80;;;;;;;26.49;29.56;101593.97;5085898;28;20041;-71
2022/07/27 07:18:24;;;;;;;1.85;0.80;;;;;;;26.58;29.76;101590.06;5079327;28;20503;-72
2022/07/27 07:20:53;;;;;;;2.45;0.80;;;;;;;26.64;29.58;101586.50;5087369;28;20082;-71
2022/07/27 07:23:21;;;;;;;2.70;0.73;;;;;;;26.72;29.31;101591.13;5083186;28;20048;-71
2022/07/27 07:25:49;;;;;;;2.13;0.80;;;;;;;26.79;29.34;101592.97;5091362;28;20109;-70
2022/07/27 07:28:20;;;;;;;2.95;0.70;;;;;;;26.84;29.20;101589.63;5090748;28;20044;-71
2022/07/27 07:30:49;;;;;;;2.47;0.80;;;;;;;26.88;28.79;101591.81;5081554;28;20048;-72
2022/07/27 07:33:17;;;;;;;2.33;0.77;;;;;;;26.96;29.01;101599.25;5087097;28;20123;-71
2022/07/27 07:35:46;;;;;;;1.48;0.70;;;;;;;27.05;29.04;101597.22;5091013;28;20044;-72
2022/07/27 07:38:35;;;;;;;2.85;0.98;;;;;;;27.10;28.73;101600.28;5089124;28;20521;-72
2022/07/27 07:41:04;;;;;;;2.15;0.80;;;;;;;27.16;28.76;101597.63;5094404;28;20054;-71
2022/07/27 07:43:34;;;;;;;2.38;1.00;;;;;;;27.25;28.68;101601.19;5072436;28;20059;-71
2022/07/27 07:46:02;;;;;;;1.85;0.70;;;;;;;27.32;28.75;101598.47;5090569;28;20051;-71
2022/07/27 07:48:30;;;;;;;2.10;0.80;;;;;;;27.39;28.70;101600.28;5085320;28;20047;-71
2022/07/27 07:51:00;;;;;;;1.48;0.70;;;;;;;27.49;28.46;101598.06;5090188;28;20681;-73
2022/07/27 07:53:28;;;;;;;2.88;0.90;;;;;;;27.54;28.33;101591.94;5090544;28;20408;-71
2022/07/27 07:55:56;;;;;;;2.05;0.90;;;;;;;27.61;27.99;101598.44;5090346;28;20564;-72
2022/07/27 07:58:25;;;;;;;2.75;1.00;;;;;;;27.66;28.04;101603.47;5089919;28;20080;-71
2022/07/27 08:00:53;;;;;;;2.15;0.80;;;;;;;27.72;28.37;101600.75;5078187;28;20044;-71
2022/07/27 08:03:21;;;;;;;3.13;0.80;;;;;;;27.79;28.10;101600.81;5077951;28;20091;-71
2022/07/27 08:05:49;;;;;;;1.83;0.90;;;;;;;27.86;28.22;101596.16;5088710;28;20040;-71
2022/07/27 08:08:19;;;;;;;1.83;0.90;;;;;;;27.96;28.15;101608.75;5090153;28;20039;-71
2022/07/27 08:10:51;;;;;;;2.17;0.82;;;;;;;28.05;28.33;101603.03;5084908;28;20048;-71
2022/07/27 08:13:19;;;;;;;3.15;1.10;;;;;;;28.15;27.71;101600.78;5083290;28;20083;-72
2022/07/27 08:15:51;;;;;;;3.22;0.80;;;;;;;28.24;27.29;101608.88;5090001;28;20040;-71
2022/07/27 08:18:19;;;;;;;1.83;0.75;;;;;;;28.31;27.25;101606.13;5071941;28;20049;-72
2022/07/27 08:20:48;;;;;;;2.05;0.60;;;;;;;28.36;26.91;101612.84;5090579;28;20554;-71
2022/07/27 08:23:16;;;;;;;0.65;0.60;;;;;;;28.43;27.20;101609.22;5088949;28;20047;-71
2022/07/27 08:25:45;;;;;;;2.53;0.70;;;;;;;28.51;27.25;101614.66;5089972;28;20539;-70
2022/07/27 08:28:13;;;;;;;1.73;0.80;;;;;;;28.58;26.87;101612.81;5089052;28;20052;-71
2022/07/27 08:30:41;;;;;;;2.15;0.80;;;;;;;28.67;26.83;101603.19;5079750;28;20056;-72
2022/07/27 08:33:10;;;;;;;1.48;0.60;;;;;;;28.76;26.58;101610.41;5086800;28;20052;-71
2022/07/27 08:35:38;;;;;;;1.77;0.80;;;;;;;28.85;26.38;101606.38;5089242;28;20101;-71
2022/07/27 08:38:08;;;;;;;1.55;0.90;;;;;;;28.96;26.73;101608.63;5090342;28;20069;-71
2022/07/27 08:40:37;;;;;;;2.15;0.70;;;;;;;29.06;26.50;101608.25;5070380;28;20056;-72
2022/07/27 08:43:16;;;;;;;0.95;0.50;;;;;;;29.17;26.21;101602.06;5076766;28;20500;-72
2022/07/27 08:45:56;;;;;;;1.92;0.63;;;;;;;29.28;25.52;101604.28;5088807;28;20264;-72
2022/07/27 08:48:25;;;;;;;10.35;6.13;;;;;;;29.33;25.75;101612.06;5089554;28;20102;-72
2022/07/27 08:50:53;;;;;;;12.52;8.20;;;;;;;29.39;25.33;101611.28;5089185;28;20131;-72
2022/07/27 08:53:22;;;;;;;19.73;15.48;;;;;;;29.42;25.21;101606.13;5089226;28;20051;-71
2022/07/27 08:55:50;;;;;;;8.10;6.20;;;;;;;29.44;24.86;101612.38;5089239;28;20485;-71
2022/07/27 08:58:20;;;;;;;5.15;3.10;;;;;;;29.46;24.60;101614.97;5088618;28;20036;-71
2022/07/27 09:00:49;;;;;;;3.38;1.88;;;;;;;29.42;24.85;101608.03;5080501;28;20504;-72
2022/07/27 09:03:20;;;;;;;3.80;1.42;;;;;;;29.40;24.23;101604.63;5088166;28;20435;-71
2022/07/27 09:05:50;;;;;;;2.90;1.10;;;;;;;29.32;24.23;101613.97;5089284;28;20496;-72
2022/07/27 09:08:22;;;;;;;2.83;0.85;;;;;;;29.25;24.06;101620.63;5089144;28;20054;-72
2022/07/27 09:10:53;;;;;;;2.95;1.00;;;;;;;29.11;24.12;101614.09;5076649;28;20103;-71
2022/07/27 09:13:25;;;;;;;2.70;1.00;;;;;;;29.01;23.81;101621.97;5088957;28;20094;-71
2022/07/27 09:15:55;;;;;;;2.67;0.98;;;;;;;28.86;24.14;101621.22;5081826;28;20055;-71
2022/07/27 09:18:43;;;;;;;2.35;1.15;;;;;;;28.68;24.35;101616.97;5088130;28;20559;-70
2022/07/27 09:21:14;;;;;;;2.78;1.30;;;;;;;28.57;24.21;101625.94;5089210;28;20554;-71
2022/07/27 09:23:44;;;;;;;3.38;1.50;;;;;;;28.40;23.84;101624.47;5088338;28;20496;-71
2022/07/27 09:26:17;;;;;;;2.90;1.40;;;;;;;28.22;23.97;101622.16;5088719;28;20075;-71
2022/07/27 09:29:02;;;;;;;1.63;1.10;;;;;;;28.07;24.27;101624.13;5069946;28;20032;-71
2022/07/27 09:31:32;;;;;;;2.20;1.10;;;;;;;27.92;24.38;101624.16;5076497;28;20146;-71
2022/07/27 09:34:02;;;;;;;1.85;1.20;;;;;;;27.83;24.57;101621.69;5088506;28;20127;-71
2022/07/27 09:36:31;;;;;;;2.00;1.25;;;;;;;27.73;25.28;101610.84;5088571;28;20244;-72
2022/07/27 09:39:01;;;;;;;2.15;1.20;;;;;;;27.70;25.60;101607.56;5084992;28;20032;-71
2022/07/27 09:41:42;;;;;;;2.88;1.23;;;;;;;27.69;25.41;101609.50;5088758;28;20043;-71
2022/07/27 09:44:14;;;;;;;3.33;1.35;;;;;;;27.68;25.39;101604.97;5087668;28;20058;-71
2022/07/27 09:47:19;;;;;;;2.20;1.10;;;;;;;27.67;25.51;101606.06;5085995;23;20044;-84
2022/07/27 09:49:47;;;;;;;1.80;1.20;;;;;;;27.67;25.01;101602.41;5063301;28;20483;-84
2022/07/27 09:52:23;;;;;;;3.10;1.17;;;;;;;27.69;25.18;101603.91;5052865;28;20044;-86
2022/07/27 09:54:51;;;;;;;1.92;1.00;;;;;;;27.64;25.23;101598.94;5050464;28;20454;-85
2022/07/27 09:57:19;;;;;;;2.38;0.80;;;;;;;27.62;25.54;101601.03;5048424;28;20048;-84
2022/07/27 10:00:09;;;;;;;2.28;0.98;;;;;;;27.59;24.90;101600.59;5044793;28;20542;-87
2022/07/27 10:02:37;;;;;;;2.17;0.85;;;;;;;27.58;25.21;101594.16;5055501;28;20076;-85
2022/07/27 10:05:06;;;;;;;2.38;1.10;;;;;;;27.62;24.77;101602.97;5058724;28;20118;-82
2022/07/27 10:07:34;;;;;;;3.50;1.27;;;;;;;27.63;25.19;101605.56;5055918;28;20050;-85
2022/07/27 10:10:03;;;;;;;1.88;1.17;;;;;;;27.65;25.05;101597.00;5053029;28;20055;-85
2022/07/27 10:12:31;;;;;;;2.50;1.20;;;;;;;27.69;25.55;101608.63;5058827;28;20058;-85
2022/07/27 10:15:01;;;;;;;2.30;1.20;;;;;;;27.74;24.86;101607.00;5052314;28;20082;-84
2022/07/27 10:17:30;;;;;;;3.65;1.40;;;;;;;27.75;25.08;101610.66;5052719;28;20109;-85
2022/07/27 10:20:02;;;;;;;1.58;1.13;;;;;;;27.79;25.06;101620.34;5046156;28;20075;-85
2022/07/27 10:22:51;;;;;;;2.58;1.38;;;;;;;27.81;25.13;101615.44;5058510;28;20036;-86
2022/07/27 10:25:20;;;;;;;1.65;1.10;;;;;;;27.81;25.04;101615.44;5041308;28;20411;-85
2022/07/27 10:27:51;;;;;;;2.42;1.33;;;;;;;27.84;25.02;101627.06;5049998;28;20415;-83
2022/07/27 10:30:20;;;;;;;1.80;1.10;;;;;;;27.84;25.02;101621.47;5034568;28;20053;-85
2022/07/27 10:32:51;;;;;;;1.85;1.20;;;;;;;27.81;24.90;101612.66;5037720;28;20045;-84
2022/07/27 10:35:33;;;;;;;2.83;1.33;;;;;;;27.81;24.67;101615.44;5038139;28;20128;-84
2022/07/27 10:38:10;;;;;;;1.80;1.10;;;;;;;27.76;24.85;101623.53;5077171;28;20051;-83
2022/07/27 10:40:39;;;;;;;2.83;1.40;;;;;;;27.71;24.95;101623.25;5047919;28;20052;-83
2022/07/27 10:43:10;;;;;;;1.48;1.10;;;;;;;27.69;24.95;101622.56;5058370;28;20041;-85
2022/07/27 10:45:43;;;;;;;3.50;1.30;;;;;;;27.66;24.75;101617.41;5066493;28;20048;-85
2022/07/27 10:48:38;;;;;;;1.77;1.00;;;;;;;27.66;24.84;101609.03;5038656;28;20337;-85
2022/07/27 10:51:15;;;;;;;2.22;1.10;;;;;;;27.61;24.72;101620.78;5075844;28;20052;-84
2022/07/27 10:54:04;;;;;;;3.28;1.20;;;;;;;27.62;25.00;101614.13;5049234;28;20053;-82
2022/07/27 11:19:09;;;;;;;2.75;1.40;;;;;;;27.41;25.13;101609.34;4787948;29;20164;-82
2022/07/27 11:21:41;;;;;;;2.38;1.48;;;;;;;27.42;25.23;101607.41;4848191;29;20109;-83
2022/07/27 11:24:15;;;;;;;2.75;1.40;;;;;;;27.42;24.97;101599.91;4867817;29;20149;-84
2022/07/27 11:26:45;;;;;;;2.00;1.20;;;;;;;27.39;25.08;101594.72;4858118;29;20441;-84
2022/07/27 11:29:16;;;;;;;2.00;1.23;;;;;;;27.39;25.41;101589.13;4852098;29;20137;-83
2022/07/27 11:31:46;;;;;;;2.50;1.33;;;;;;;27.44;25.48;101582.97;4857117;29;20042;-84
2022/07/27 11:34:29;;;;;;;2.92;1.23;;;;;;;27.49;24.78;101584.13;4855481;29;20058;-84
2022/07/27 11:37:00;;;;;;;3.63;1.58;;;;;;;27.52;25.08;101577.28;4859355;29;20050;-84
2022/07/27 11:39:30;;;;;;;3.20;1.67;;;;;;;27.59;24.64;101570.75;4855759;29;20598;-83
2022/07/27 11:42:20;;;;;;;3.55;1.40;;;;;;;27.61;24.71;101564.97;4861198;29;20548;-84
2022/07/27 11:44:51;;;;;;;2.50;1.20;;;;;;;27.71;24.99;101564.66;4861652;29;20591;-84
2022/07/27 11:47:22;;;;;;;2.35;1.30;;;;;;;27.80;24.55;101569.06;4894324;29;20067;-83
2022/07/27 11:49:52;;;;;;;3.20;1.48;;;;;;;27.86;24.49;101566.31;4905163;29;20048;-84
2022/07/27 11:52:22;;;;;;;3.05;1.20;;;;;;;27.95;24.32;101578.22;4947428;28;20086;-84
2022/07/27 11:54:52;;;;;;;2.47;1.08;;;;;;;28.04;24.51;101563.09;4957319;28;20102;-84
2022/07/27 11:57:21;;;;;;;1.48;1.08;;;;;;;28.11;24.02;101564.00;4972672;28;20141;-83
2022/07/27 11:59:49;;;;;;;2.90;1.40;;;;;;;28.19;23.95;101558.31;4992105;28;20111;-83
2022/07/27 12:02:20;;;;;;;1.77;1.00;;;;;;;28.27;23.84;101563.75;5014859;28;20057;-83